createdAt,value
2023-04-26T00:03:30.364Z,6.5
2023-04-26T00:13:30.205Z,6.3
2023-04-26T00:23:30.153Z,6.2
2023-04-26T00:33:30.174Z,5.9
2023-04-26T00:43:30.157Z,5.8
2023-04-26T00:53:30.115Z,5.7
2023-04-26T01:03:30.247Z,5.8
2023-04-26T01:13:30.113Z,5.5
2023-04-26T01:23:30.090Z,5.2
2023-04-26T01:33:30.119Z,5.3
2023-04-26T01:43:30.071Z,5.2
2023-04-26T01:53:30.046Z,5.2
2023-04-26T02:13:30.051Z,4.7
2023-04-26T02:23:29.991Z,4.6
2023-04-26T02:33:30.023Z,4.6
2023-04-26T02:43:29.980Z,4.6
2023-04-26T02:53:29.984Z,4.3
2023-04-26T03:03:30.181Z,4.2
2023-04-26T03:13:29.933Z,4.1
2023-04-26T03:23:29.959Z,4.2
2023-04-26T03:33:29.927Z,4.2
2023-04-26T03:43:29.905Z,4.2
2023-04-26T03:53:29.889Z,4.1
2023-04-26T04:03:30.090Z,3.8
2023-04-26T04:13:29.898Z,3.8
2023-04-26T04:23:29.854Z,3.8
2023-04-26T04:33:29.886Z,3.8
2023-04-26T04:43:29.853Z,3.8
2023-04-26T04:53:29.838Z,3.7
2023-04-26T05:03:29.944Z,3.9
2023-04-26T05:13:29.802Z,3.9
2023-04-26T05:23:29.790Z,3.9
2023-04-26T05:33:29.807Z,4.1
2023-04-26T05:43:29.770Z,4.4
2023-04-26T05:53:29.775Z,4.5
2023-04-26T06:03:29.998Z,4.8
2023-04-26T06:13:29.729Z,5
2023-04-26T06:23:29.704Z,5.1
2023-04-26T06:33:29.726Z,5.5
2023-04-26T06:43:29.715Z,6
2023-04-26T06:53:29.738Z,6.4
2023-04-26T07:03:29.792Z,6.9
2023-04-26T07:13:29.689Z,7.4
2023-04-26T07:23:29.649Z,7.8
2023-04-26T07:33:29.843Z,8.1
2023-04-26T07:43:29.596Z,8.4
2023-04-26T07:53:29.609Z,8.8
2023-04-26T08:03:29.793Z,9.1
2023-04-26T08:13:29.732Z,9.5
2023-04-26T08:23:29.540Z,9.8
2023-04-26T08:33:29.565Z,10.3
2023-04-26T08:43:29.508Z,10.7
2023-04-26T08:53:29.516Z,11.1
2023-04-26T09:03:29.655Z,11.6
2023-04-26T09:13:29.473Z,12.3
2023-04-26T09:23:35.499Z,13.9
2023-04-26T09:33:29.416Z,16.3
2023-04-26T09:43:29.401Z,18.1
2023-04-26T09:53:29.374Z,19.7
2023-04-26T10:03:29.609Z,21.6
2023-04-26T10:13:29.357Z,22.7
2023-04-26T10:23:29.299Z,22.9
2023-04-26T10:33:29.311Z,23.5
2023-04-26T10:43:29.271Z,24.4
2023-04-26T10:53:29.264Z,24.9
2023-04-26T11:03:29.463Z,25.4
2023-04-26T11:13:29.212Z,25.9
2023-04-26T11:23:29.211Z,26.4
2023-04-26T11:33:29.166Z,27
2023-04-26T11:43:29.207Z,26.6
2023-04-26T11:53:29.126Z,27.2
2023-04-26T12:03:29.290Z,28.1
2023-04-26T12:13:29.087Z,27.9
2023-04-26T12:23:29.085Z,27.8
2023-04-26T12:33:29.094Z,28.3
2023-04-26T12:43:29.029Z,29.5
2023-04-26T12:53:28.977Z,29.3
2023-04-26T13:03:29.168Z,30.4
2023-04-26T13:13:39.850Z,31.3
2023-04-26T13:23:28.914Z,31.3
2023-04-26T13:33:28.908Z,31
2023-04-26T13:43:28.913Z,31
2023-04-26T13:53:28.896Z,32
2023-04-26T14:03:28.988Z,32.5
2023-04-26T14:13:28.818Z,32.7
2023-04-26T14:23:28.810Z,32.4
2023-04-26T14:33:28.762Z,32.7
2023-04-26T14:43:28.764Z,31.1
2023-04-26T14:53:28.708Z,29.7
2023-04-26T15:03:29.118Z,27.4
2023-04-26T15:13:28.693Z,26.2
2023-04-26T15:23:28.660Z,25.3
2023-04-26T15:33:28.624Z,24.7
2023-04-26T15:43:28.651Z,24
2023-04-26T15:53:28.607Z,23.7
2023-04-26T16:03:28.689Z,23.4
2023-04-26T16:13:28.571Z,22.9
2023-04-26T16:23:28.545Z,23
2023-04-26T16:33:28.606Z,22.6
2023-04-26T16:43:28.506Z,22.4
2023-04-26T16:53:28.449Z,22.3
2023-04-26T17:03:28.605Z,22.1
2023-04-26T17:13:28.407Z,21.5
2023-04-26T17:23:28.412Z,21.2
2023-04-26T17:33:28.369Z,20.9
2023-04-26T17:43:28.360Z,20.4
2023-04-26T17:53:28.362Z,20.2
2023-04-26T18:03:28.491Z,19.9
2023-04-26T18:13:28.282Z,19.5
2023-04-26T18:23:28.268Z,19
2023-04-26T18:33:28.232Z,18.5
2023-04-26T18:43:28.215Z,18.2
2023-04-26T18:53:28.221Z,17.8
2023-04-26T19:03:28.340Z,17.6
2023-04-26T19:13:28.177Z,17.3
2023-04-26T19:23:28.152Z,17
2023-04-26T19:33:28.154Z,16.5
2023-04-26T19:43:28.088Z,16.3
2023-04-26T19:53:28.068Z,16.1
2023-04-26T20:03:28.454Z,15.8
2023-04-26T20:13:28.064Z,15.6
2023-04-26T20:23:28.031Z,15.3
2023-04-26T20:33:27.999Z,15
2023-04-26T20:43:27.976Z,14.7
2023-04-26T20:53:28.012Z,14.4
2023-04-26T21:03:28.169Z,14.4
2023-04-26T21:13:27.944Z,14.2
2023-04-26T21:23:27.899Z,14.1
2023-04-26T21:33:27.896Z,14
2023-04-26T21:43:27.897Z,13.7
2023-04-26T21:53:27.844Z,13.6
2023-04-26T22:03:27.981Z,13.6
2023-04-26T22:13:27.803Z,13.4
2023-04-26T22:23:27.811Z,13.4
2023-04-26T22:33:27.895Z,13.4
2023-04-26T22:43:27.800Z,13.3
2023-04-26T22:53:27.727Z,13.2
2023-04-26T23:03:27.917Z,13.1
2023-04-26T23:13:27.710Z,13
2023-04-26T23:23:27.712Z,12.9
2023-04-26T23:33:27.681Z,12.8
2023-04-26T23:43:27.674Z,12.7
2023-04-26T23:53:27.666Z,12.5
